sensor_id;sensor_type;location;lat;lon;timestamp;pressure;altitude;pressure_sealevel;temperature;humidity
74218;BME280;62579;47.288;18.646;2023-07-13T00:01:11;99573.34;;;23.58;76.94
74218;BME280;62579;47.288;18.646;2023-07-13T00:03:36;99567.50;;;23.54;76.52
74218;BME280;62579;47.288;18.646;2023-07-13T00:06:01;99571.34;;;23.70;75.99
74218;BME280;62579;47.288;18.646;2023-07-13T00:08:29;99564.47;;;23.50;76.79
74218;BME280;62579;47.288;18.646;2023-07-13T00:10:54;99573.00;;;23.64;76.28
74218;BME280;62579;47.288;18.646;2023-07-13T00:13:20;99564.34;;;23.90;73.92
74218;BME280;62579;47.288;18.646;2023-07-13T00:15:45;99559.50;;;23.91;73.41
74218;BME280;62579;47.288;18.646;2023-07-13T00:18:10;99545.69;;;23.81;73.76
74218;BME280;62579;47.288;18.646;2023-07-13T00:20:35;99540.84;;;23.82;73.86
74218;BME280;62579;47.288;18.646;2023-07-13T00:23:00;99534.16;;;23.97;72.89
74218;BME280;62579;47.288;18.646;2023-07-13T00:25:26;99535.69;;;23.88;73.27
74218;BME280;62579;47.288;18.646;2023-07-13T00:27:53;99525.50;;;23.60;74.78
74218;BME280;62579;47.288;18.646;2023-07-13T00:30:18;99523.72;;;23.64;74.77
74218;BME280;62579;47.288;18.646;2023-07-13T00:32:44;99532.56;;;23.72;74.57
74218;BME280;62579;47.288;18.646;2023-07-13T00:35:09;99536.53;;;23.69;75.03
74218;BME280;62579;47.288;18.646;2023-07-13T00:37:34;99523.78;;;23.76;74.57
74218;BME280;62579;47.288;18.646;2023-07-13T00:40:01;99528.59;;;23.75;74.47
74218;BME280;62579;47.288;18.646;2023-07-13T00:42:26;99522.19;;;23.73;74.78
74218;BME280;62579;47.288;18.646;2023-07-13T00:45:01;99514.91;;;23.68;75.25
74218;BME280;62579;47.288;18.646;2023-07-13T00:47:26;99518.75;;;23.63;75.63
74218;BME280;62579;47.288;18.646;2023-07-13T00:49:51;99518.09;;;23.53;75.73
74218;BME280;62579;47.288;18.646;2023-07-13T00:52:17;99506.66;;;23.27;77.10
74218;BME280;62579;47.288;18.646;2023-07-13T00:54:43;99504.50;;;23.26;76.82
74218;BME280;62579;47.288;18.646;2023-07-13T00:57:11;99494.94;;;23.39;76.06
74218;BME280;62579;47.288;18.646;2023-07-13T00:59:37;99489.22;;;23.37;76.82
74218;BME280;62579;47.288;18.646;2023-07-13T01:02:05;99492.38;;;23.21;77.51
74218;BME280;62579;47.288;18.646;2023-07-13T01:04:30;99487.31;;;23.08;77.85
74218;BME280;62579;47.288;18.646;2023-07-13T01:06:56;99488.81;;;23.00;77.30
74218;BME280;62579;47.288;18.646;2023-07-13T01:09:22;99485.53;;;22.82;78.00
74218;BME280;62579;47.288;18.646;2023-07-13T01:11:47;99476.63;;;22.84;78.01
74218;BME280;62579;47.288;18.646;2023-07-13T01:14:12;99481.00;;;22.87;78.54
74218;BME280;62579;47.288;18.646;2023-07-13T01:16:39;99473.53;;;22.89;78.64
74218;BME280;62579;47.288;18.646;2023-07-13T01:19:08;99471.94;;;22.86;78.80
74218;BME280;62579;47.288;18.646;2023-07-13T01:21:36;99475.63;;;22.79;78.88
74218;BME280;62579;47.288;18.646;2023-07-13T01:24:06;99485.44;;;22.70;78.93
74218;BME280;62579;47.288;18.646;2023-07-13T01:26:31;99475.94;;;22.73;78.94
74218;BME280;62579;47.288;18.646;2023-07-13T01:28:56;99464.72;;;22.71;78.85
74218;BME280;62579;47.288;18.646;2023-07-13T01:31:21;99458.16;;;22.67;78.58
74218;BME280;62579;47.288;18.646;2023-07-13T01:33:47;99467.22;;;22.48;79.56
74218;BME280;62579;47.288;18.646;2023-07-13T01:36:12;99469.00;;;22.44;80.44
74218;BME280;62579;47.288;18.646;2023-07-13T01:38:37;99455.56;;;22.50;79.92
74218;BME280;62579;47.288;18.646;2023-07-13T01:41:02;99462.88;;;22.45;80.13
74218;BME280;62579;47.288;18.646;2023-07-13T01:43:28;99475.56;;;22.39;80.29
74218;BME280;62579;47.288;18.646;2023-07-13T01:45:53;99483.06;;;22.27;81.28
74218;BME280;62579;47.288;18.646;2023-07-13T01:51:04;99485.06;;;22.36;81.07
74218;BME280;62579;47.288;18.646;2023-07-13T01:53:29;99474.87;;;22.29;81.66
74218;BME280;62579;47.288;18.646;2023-07-13T01:55:54;99475.59;;;22.29;81.77
74218;BME280;62579;47.288;18.646;2023-07-13T01:58:20;99471.06;;;22.24;82.39
74218;BME280;62579;47.288;18.646;2023-07-13T02:00:47;99472.84;;;22.20;82.59
74218;BME280;62579;47.288;18.646;2023-07-13T02:03:12;99463.81;;;22.09;83.00
74218;BME280;62579;47.288;18.646;2023-07-13T02:05:42;99474.16;;;21.90;84.27
74218;BME280;62579;47.288;18.646;2023-07-13T02:08:08;99474.16;;;21.90;84.13
74218;BME280;62579;47.288;18.646;2023-07-13T02:10:33;99453.91;;;21.87;84.42
74218;BME280;62579;47.288;18.646;2023-07-13T02:12:58;99452.47;;;21.86;84.40
74218;BME280;62579;47.288;18.646;2023-07-13T02:15:23;99465.28;;;21.91;84.11
74218;BME280;62579;47.288;18.646;2023-07-13T02:17:48;99458.59;;;21.94;83.93
74218;BME280;62579;47.288;18.646;2023-07-13T02:20:14;99466.72;;;21.83;84.42
74218;BME280;62579;47.288;18.646;2023-07-13T02:22:39;99459.13;;;21.74;85.27
74218;BME280;62579;47.288;18.646;2023-07-13T02:25:04;99450.97;;;21.57;86.30
74218;BME280;62579;47.288;18.646;2023-07-13T02:27:29;99449.22;;;21.71;85.56
74218;BME280;62579;47.288;18.646;2023-07-13T02:29:55;99440.91;;;21.61;85.72
74218;BME280;62579;47.288;18.646;2023-07-13T02:32:20;99442.22;;;21.50;86.49
74218;BME280;62579;47.288;18.646;2023-07-13T02:34:45;99449.94;;;21.71;84.60
74218;BME280;62579;47.288;18.646;2023-07-13T02:37:11;99444.41;;;21.81;84.38
74218;BME280;62579;47.288;18.646;2023-07-13T02:39:37;99452.72;;;21.81;84.52
74218;BME280;62579;47.288;18.646;2023-07-13T02:42:02;99468.59;;;21.71;84.62
74218;BME280;62579;47.288;18.646;2023-07-13T02:44:28;99455.62;;;21.54;84.85
74218;BME280;62579;47.288;18.646;2023-07-13T02:46:53;99453.44;;;21.43;84.98
74218;BME280;62579;47.288;18.646;2023-07-13T02:49:18;99459.81;;;21.36;85.21
74218;BME280;62579;47.288;18.646;2023-07-13T02:51:44;99462.16;;;21.30;85.34
74218;BME280;62579;47.288;18.646;2023-07-13T02:54:09;99464.50;;;21.43;84.55
74218;BME280;62579;47.288;18.646;2023-07-13T02:56:34;99466.97;;;21.29;84.93
74218;BME280;62579;47.288;18.646;2023-07-13T02:59:00;99467.06;;;21.12;85.47
74218;BME280;62579;47.288;18.646;2023-07-13T03:01:25;99473.38;;;20.95;86.28
74218;BME280;62579;47.288;18.646;2023-07-13T03:03:51;99480.78;;;20.83;86.76
74218;BME280;62579;47.288;18.646;2023-07-13T03:06:16;99487.31;;;20.78;86.86
74218;BME280;62579;47.288;18.646;2023-07-13T03:08:42;99485.59;;;20.56;88.04
74218;BME280;62579;47.288;18.646;2023-07-13T03:11:10;99487.81;;;20.41;89.08
74218;BME280;62579;47.288;18.646;2023-07-13T03:13:39;99490.25;;;20.36;89.94
74218;BME280;62579;47.288;18.646;2023-07-13T03:16:05;99479.62;;;20.33;90.54
74218;BME280;62579;47.288;18.646;2023-07-13T03:18:30;99492.72;;;20.32;90.77
74218;BME280;62579;47.288;18.646;2023-07-13T03:20:56;99486.94;;;20.21;91.42
74218;BME280;62579;47.288;18.646;2023-07-13T03:23:21;99486.47;;;20.32;91.05
74218;BME280;62579;47.288;18.646;2023-07-13T03:25:47;99490.91;;;20.45;90.19
74218;BME280;62579;47.288;18.646;2023-07-13T03:28:13;99485.88;;;20.33;90.92
74218;BME280;62579;47.288;18.646;2023-07-13T03:30:38;99488.63;;;20.33;91.24
74218;BME280;62579;47.288;18.646;2023-07-13T03:33:04;99497.41;;;20.40;91.16
74218;BME280;62579;47.288;18.646;2023-07-13T03:35:29;99516.22;;;20.41;91.53
74218;BME280;62579;47.288;18.646;2023-07-13T03:37:55;99508.63;;;20.68;90.37
74218;BME280;62579;47.288;18.646;2023-07-13T03:40:20;99511.19;;;20.57;91.53
74218;BME280;62579;47.288;18.646;2023-07-13T03:42:46;99512.44;;;20.46;92.93
74218;BME280;62579;47.288;18.646;2023-07-13T03:45:11;99515.63;;;20.43;93.43
74218;BME280;62579;47.288;18.646;2023-07-13T03:47:36;99502.44;;;20.51;92.46
74218;BME280;62579;47.288;18.646;2023-07-13T03:50:01;99507.69;;;20.56;91.20
74218;BME280;62579;47.288;18.646;2023-07-13T03:52:26;99532.12;;;20.77;90.08
74218;BME280;62579;47.288;18.646;2023-07-13T03:54:51;99543.94;;;20.87;89.24
74218;BME280;62579;47.288;18.646;2023-07-13T03:57:18;99543.00;;;21.02;88.80
74218;BME280;62579;47.288;18.646;2023-07-13T03:59:43;99534.63;;;21.09;88.50
74218;BME280;62579;47.288;18.646;2023-07-13T04:02:09;99538.28;;;21.12;88.58
74218;BME280;62579;47.288;18.646;2023-07-13T04:04:34;99555.50;;;20.93;90.69
74218;BME280;62579;47.288;18.646;2023-07-13T04:07:00;99563.16;;;21.12;89.93
74218;BME280;62579;47.288;18.646;2023-07-13T04:09:25;99580.84;;;21.16;89.65
74218;BME280;62579;47.288;18.646;2023-07-13T04:14:36;99582.63;;;21.04;88.98
74218;BME280;62579;47.288;18.646;2023-07-13T04:17:02;99583.59;;;21.16;88.30
74218;BME280;62579;47.288;18.646;2023-07-13T04:19:27;99589.56;;;21.22;88.13
74218;BME280;62579;47.288;18.646;2023-07-13T04:21:52;99604.75;;;21.21;88.32
74218;BME280;62579;47.288;18.646;2023-07-13T04:24:17;99611.63;;;21.30;87.76
74218;BME280;62579;47.288;18.646;2023-07-13T04:26:42;99626.66;;;21.36;87.98
74218;BME280;62579;47.288;18.646;2023-07-13T04:29:08;99636.44;;;21.37;88.10
74218;BME280;62579;47.288;18.646;2023-07-13T04:31:33;99650.94;;;21.28;88.70
74218;BME280;62579;47.288;18.646;2023-07-13T04:33:59;99658.94;;;21.24;88.97
74218;BME280;62579;47.288;18.646;2023-07-13T04:36:24;99660.34;;;21.16;90.02
74218;BME280;62579;47.288;18.646;2023-07-13T04:38:52;99666.78;;;21.18;90.18
74218;BME280;62579;47.288;18.646;2023-07-13T04:41:17;99683.63;;;21.13;91.00
74218;BME280;62579;47.288;18.646;2023-07-13T04:43:45;99709.59;;;21.00;91.92
74218;BME280;62579;47.288;18.646;2023-07-13T04:46:11;99735.22;;;20.49;96.13
74218;BME280;62579;47.288;18.646;2023-07-13T04:48:37;99768.06;;;20.45;96.53
74218;BME280;62579;47.288;18.646;2023-07-13T04:51:02;99792.50;;;20.31;98.22
74218;BME280;62579;47.288;18.646;2023-07-13T04:53:28;99811.41;;;20.10;100.00
74218;BME280;62579;47.288;18.646;2023-07-13T04:55:54;99843.84;;;19.77;100.00
74218;BME280;62579;47.288;18.646;2023-07-13T04:58:21;99847.72;;;19.74;100.00
74218;BME280;62579;47.288;18.646;2023-07-13T05:00:46;99903.75;;;19.60;100.00
74218;BME280;62579;47.288;18.646;2023-07-13T05:03:11;99913.34;;;19.51;100.00
74218;BME280;62579;47.288;18.646;2023-07-13T05:05:37;99916.63;;;19.50;100.00
74218;BME280;62579;47.288;18.646;2023-07-13T05:08:02;99922.34;;;19.52;100.00
74218;BME280;62579;47.288;18.646;2023-07-13T05:10:27;99916.31;;;19.38;100.00
74218;BME280;62579;47.288;18.646;2023-07-13T05:12:52;99907.44;;;19.47;100.00
74218;BME280;62579;47.288;18.646;2023-07-13T05:15:18;99889.44;;;19.31;100.00
74218;BME280;62579;47.288;18.646;2023-07-13T05:17:47;99880.97;;;19.44;100.00
74218;BME280;62579;47.288;18.646;2023-07-13T05:20:12;99853.38;;;19.29;100.00
74218;BME280;62579;47.288;18.646;2023-07-13T05:22:37;99808.91;;;19.25;100.00
74218;BME280;62579;47.288;18.646;2023-07-13T05:25:04;99770.00;;;19.46;100.00
74218;BME280;62579;47.288;18.646;2023-07-13T05:27:30;99789.91;;;19.44;100.00
74218;BME280;62579;47.288;18.646;2023-07-13T05:29:55;99831.13;;;19.27;100.00
74218;BME280;62579;47.288;18.646;2023-07-13T05:32:20;99833.34;;;19.29;100.00
74218;BME280;62579;47.288;18.646;2023-07-13T05:34:46;99834.25;;;19.31;100.00
74218;BME280;62579;47.288;18.646;2023-07-13T05:37:11;99814.59;;;19.27;100.00
74218;BME280;62579;47.288;18.646;2023-07-13T05:39:36;99806.72;;;19.16;100.00
74218;BME280;62579;47.288;18.646;2023-07-13T05:42:02;99808.72;;;19.15;100.00
74218;BME280;62579;47.288;18.646;2023-07-13T05:44:27;99815.91;;;19.18;100.00
74218;BME280;62579;47.288;18.646;2023-07-13T05:46:53;99792.34;;;19.17;100.00
74218;BME280;62579;47.288;18.646;2023-07-13T05:49:18;99730.72;;;19.23;100.00
74218;BME280;62579;47.288;18.646;2023-07-13T05:51:43;99575.91;;;19.43;100.00
74218;BME280;62579;47.288;18.646;2023-07-13T05:54:09;99539.88;;;19.41;100.00
74218;BME280;62579;47.288;18.646;2023-07-13T05:56:34;99571.38;;;19.31;100.00
74218;BME280;62579;47.288;18.646;2023-07-13T05:58:59;99526.00;;;19.49;100.00
74218;BME280;62579;47.288;18.646;2023-07-13T06:01:24;99448.72;;;19.49;100.00
74218;BME280;62579;47.288;18.646;2023-07-13T06:03:49;99382.78;;;19.53;100.00
74218;BME280;62579;47.288;18.646;2023-07-13T06:06:15;99349.47;;;19.41;100.00
74218;BME280;62579;47.288;18.646;2023-07-13T06:08:40;99337.91;;;19.35;100.00
74218;BME280;62579;47.288;18.646;2023-07-13T06:11:27;99342.12;;;19.36;100.00
74218;BME280;62579;47.288;18.646;2023-07-13T06:13:52;99370.41;;;19.44;100.00
74218;BME280;62579;47.288;18.646;2023-07-13T06:16:17;99357.00;;;19.41;100.00
74218;BME280;62579;47.288;18.646;2023-07-13T06:18:42;99390.00;;;19.31;100.00
74218;BME280;62579;47.288;18.646;2023-07-13T06:23:33;99379.97;;;19.60;100.00
74218;BME280;62579;47.288;18.646;2023-07-13T06:25:58;99385.22;;;19.66;100.00
74218;BME280;62579;47.288;18.646;2023-07-13T06:28:24;99404.72;;;19.68;100.00
74218;BME280;62579;47.288;18.646;2023-07-13T06:30:49;99421.03;;;19.73;100.00
74218;BME280;62579;47.288;18.646;2023-07-13T06:33:14;99411.69;;;19.69;100.00
74218;BME280;62579;47.288;18.646;2023-07-13T06:35:39;99447.91;;;19.73;100.00
74218;BME280;62579;47.288;18.646;2023-07-13T06:38:05;99460.41;;;19.74;100.00
74218;BME280;62579;47.288;18.646;2023-07-13T06:40:30;99460.25;;;19.89;100.00
74218;BME280;62579;47.288;18.646;2023-07-13T06:42:55;99479.34;;;19.95;100.00
74218;BME280;62579;47.288;18.646;2023-07-13T06:45:20;99507.50;;;20.10;100.00
74218;BME280;62579;47.288;18.646;2023-07-13T06:47:45;99540.44;;;20.33;100.00
74218;BME280;62579;47.288;18.646;2023-07-13T06:50:11;99533.12;;;20.28;100.00
74218;BME280;62579;47.288;18.646;2023-07-13T06:52:36;99532.94;;;20.43;100.00
74218;BME280;62579;47.288;18.646;2023-07-13T06:55:01;99538.13;;;20.56;100.00
74218;BME280;62579;47.288;18.646;2023-07-13T06:57:26;99565.75;;;20.56;100.00
74218;BME280;62579;47.288;18.646;2023-07-13T06:59:52;99618.53;;;20.51;100.00
74218;BME280;62579;47.288;18.646;2023-07-13T07:02:17;99625.59;;;20.61;100.00
74218;BME280;62579;47.288;18.646;2023-07-13T07:04:42;99630.09;;;20.57;100.00
74218;BME280;62579;47.288;18.646;2023-07-13T07:07:08;99632.59;;;20.62;100.00
74218;BME280;62579;47.288;18.646;2023-07-13T07:09:33;99666.13;;;20.49;100.00
74218;BME280;62579;47.288;18.646;2023-07-13T07:11:58;99630.66;;;20.55;100.00
74218;BME280;62579;47.288;18.646;2023-07-13T07:14:23;99644.91;;;20.52;100.00
74218;BME280;62579;47.288;18.646;2023-07-13T07:16:49;99661.06;;;20.55;100.00
74218;BME280;62579;47.288;18.646;2023-07-13T07:19:14;99648.41;;;20.79;100.00
74218;BME280;62579;47.288;18.646;2023-07-13T07:21:39;99659.75;;;20.73;100.00
74218;BME280;62579;47.288;18.646;2023-07-13T07:24:05;99673.56;;;20.90;100.00
74218;BME280;62579;47.288;18.646;2023-07-13T07:26:30;99664.00;;;21.01;100.00
74218;BME280;62579;47.288;18.646;2023-07-13T07:28:56;99666.78;;;21.18;100.00
74218;BME280;62579;47.288;18.646;2023-07-13T07:31:21;99664.94;;;21.30;100.00
74218;BME280;62579;47.288;18.646;2023-07-13T07:33:46;99654.28;;;21.53;100.00
74218;BME280;62579;47.288;18.646;2023-07-13T07:36:11;99663.06;;;21.69;99.88
74218;BME280;62579;47.288;18.646;2023-07-13T07:38:37;99678.09;;;21.76;96.22
74218;BME280;62579;47.288;18.646;2023-07-13T07:41:03;99678.09;;;21.76;95.61
74218;BME280;62579;47.288;18.646;2023-07-13T07:43:29;99681.37;;;21.55;93.93
74218;BME280;62579;47.288;18.646;2023-07-13T07:45:55;99670.03;;;21.61;96.03
74218;BME280;62579;47.288;18.646;2023-07-13T07:48:20;99692.25;;;21.70;94.97
74218;BME280;62579;47.288;18.646;2023-07-13T07:50:45;99684.66;;;21.71;93.70
74218;BME280;62579;47.288;18.646;2023-07-13T07:53:10;99688.34;;;21.83;94.14
74218;BME280;62579;47.288;18.646;2023-07-13T07:55:36;99688.37;;;21.92;92.60
74218;BME280;62579;47.288;18.646;2023-07-13T07:58:01;99698.19;;;21.93;93.02
74218;BME280;62579;47.288;18.646;2023-07-13T08:00:27;99707.06;;;21.92;92.52
74218;BME280;62579;47.288;18.646;2023-07-13T08:02:55;99706.59;;;21.86;92.17
74218;BME280;62579;47.288;18.646;2023-07-13T08:05:20;99704.72;;;21.88;93.04
74218;BME280;62579;47.288;18.646;2023-07-13T08:07:45;99708.31;;;21.81;91.91
74218;BME280;62579;47.288;18.646;2023-07-13T08:10:11;99703.66;;;21.84;92.97
74218;BME280;62579;47.288;18.646;2023-07-13T08:12:37;99702.31;;;22.11;90.35
74218;BME280;62579;47.288;18.646;2023-07-13T08:15:03;99707.28;;;22.23;89.20
74218;BME280;62579;47.288;18.646;2023-07-13T08:17:28;99700.12;;;22.20;86.71
74218;BME280;62579;47.288;18.646;2023-07-13T08:19:54;99704.09;;;22.36;85.85
74218;BME280;62579;47.288;18.646;2023-07-13T08:22:19;99704.84;;;22.46;86.91
74218;BME280;62579;47.288;18.646;2023-07-13T08:24:45;99704.28;;;22.47;84.60
74218;BME280;62579;47.288;18.646;2023-07-13T08:27:10;99705.44;;;22.44;83.09
74218;BME280;62579;47.288;18.646;2023-07-13T08:29:36;99715.50;;;22.49;84.54
74218;BME280;62579;47.288;18.646;2023-07-13T08:32:01;99717.13;;;22.62;85.32
74218;BME280;62579;47.288;18.646;2023-07-13T08:34:27;99708.97;;;22.73;84.12
74218;BME280;62579;47.288;18.646;2023-07-13T08:36:52;99719.78;;;22.79;84.18
74218;BME280;62579;47.288;18.646;2023-07-13T08:42:07;99709.56;;;22.91;82.04
74218;BME280;62579;47.288;18.646;2023-07-13T08:47:15;99708.94;;;23.21;79.61
74218;BME280;62579;47.288;18.646;2023-07-13T08:49:41;99710.97;;;23.21;80.16
74218;BME280;62579;47.288;18.646;2023-07-13T08:54:43;99718.56;;;23.30;78.16
74218;BME280;62579;47.288;18.646;2023-07-13T08:57:13;99712.28;;;23.39;78.25
74218;BME280;62579;47.288;18.646;2023-07-13T08:59:39;99705.69;;;23.44;77.35
74218;BME280;62579;47.288;18.646;2023-07-13T09:07:26;99703.63;;;24.16;77.15
74218;BME280;62579;47.288;18.646;2023-07-13T09:15:14;99697.22;;;24.56;73.60
74218;BME280;62579;47.288;18.646;2023-07-13T09:17:48;99704.19;;;24.45;74.08
74218;BME280;62579;47.288;18.646;2023-07-13T09:22:56;99705.44;;;24.54;74.47
74218;BME280;62579;47.288;18.646;2023-07-13T09:25:30;99700.09;;;24.46;75.25
74218;BME280;62579;47.288;18.646;2023-07-13T09:27:57;99692.66;;;24.60;73.48
74218;BME280;62579;47.288;18.646;2023-07-13T09:30:25;99695.84;;;24.87;74.75
74218;BME280;62579;47.288;18.646;2023-07-13T09:32:55;99697.03;;;24.84;72.68
74218;BME280;62579;47.288;18.646;2023-07-13T09:35:25;99697.72;;;25.06;72.32
74218;BME280;62579;47.288;18.646;2023-07-13T09:37:56;99699.28;;;25.09;70.91
74218;BME280;62579;47.288;18.646;2023-07-13T09:43:06;99717.88;;;25.28;69.97
74218;BME280;62579;47.288;18.646;2023-07-13T09:45:45;99721.75;;;25.34;70.49
74218;BME280;62579;47.288;18.646;2023-07-13T09:48:12;99716.28;;;25.36;69.30
74218;BME280;62579;47.288;18.646;2023-07-13T09:50:38;99711.72;;;25.41;68.77
74218;BME280;62579;47.288;18.646;2023-07-13T09:53:03;99711.37;;;25.46;71.60
74218;BME280;62579;47.288;18.646;2023-07-13T09:57:54;99701.84;;;25.84;68.65
74218;BME280;62579;47.288;18.646;2023-07-13T10:00:28;99716.84;;;26.02;66.30
74218;BME280;62579;47.288;18.646;2023-07-13T10:03:04;99711.37;;;25.93;67.74
74218;BME280;62579;47.288;18.646;2023-07-13T10:05:40;99708.97;;;25.87;68.53
74218;BME280;62579;47.288;18.646;2023-07-13T10:08:16;99713.22;;;26.00;67.71
74218;BME280;62579;47.288;18.646;2023-07-13T10:10:43;99702.66;;;26.10;69.81
74218;BME280;62579;47.288;18.646;2023-07-13T10:16:07;99716.47;;;26.31;66.63
74218;BME280;62579;47.288;18.646;2023-07-13T10:18:46;99712.94;;;26.31;65.27
74218;BME280;62579;47.288;18.646;2023-07-13T10:21:16;99714.53;;;26.34;64.26
74218;BME280;62579;47.288;18.646;2023-07-13T10:23:42;99712.47;;;26.34;62.92
74218;BME280;62579;47.288;18.646;2023-07-13T10:26:13;99713.88;;;26.47;62.66
74218;BME280;62579;47.288;18.646;2023-07-13T10:28:41;99706.59;;;26.53;61.32
74218;BME280;62579;47.288;18.646;2023-07-13T10:31:10;99702.78;;;26.60;61.96
74218;BME280;62579;47.288;18.646;2023-07-13T10:33:37;99697.41;;;26.76;62.54
74218;BME280;62579;47.288;18.646;2023-07-13T10:36:46;99700.78;;;26.86;61.26
74218;BME280;62579;47.288;18.646;2023-07-13T10:38:51;99711.19;;;26.97;58.35
74218;BME280;62579;47.288;18.646;2023-07-13T10:41:18;99704.16;;;26.96;58.13
74218;BME280;62579;47.288;18.646;2023-07-13T10:43:46;99693.41;;;27.04;57.73
74218;BME280;62579;47.288;18.646;2023-07-13T10:46:14;99697.00;;;27.18;59.22
74218;BME280;62579;47.288;18.646;2023-07-13T10:48:40;99711.06;;;27.20;57.22
74218;BME280;62579;47.288;18.646;2023-07-13T10:51:07;99714.78;;;27.25;56.73
74218;BME280;62579;47.288;18.646;2023-07-13T10:53:33;99710.72;;;27.14;56.38
74218;BME280;62579;47.288;18.646;2023-07-13T10:56:03;99708.47;;;27.24;58.01
74218;BME280;62579;47.288;18.646;2023-07-13T10:58:33;99711.41;;;27.26;57.61
74218;BME280;62579;47.288;18.646;2023-07-13T11:01:12;99711.59;;;27.30;58.65
74218;BME280;62579;47.288;18.646;2023-07-13T11:06:16;99692.53;;;27.66;59.82
74218;BME280;62579;47.288;18.646;2023-07-13T11:18:41;99692.84;;;27.45;57.16
74218;BME280;62579;47.288;18.646;2023-07-13T11:21:13;99691.38;;;27.57;57.13
74218;BME280;62579;47.288;18.646;2023-07-13T11:23:41;99692.72;;;27.42;56.31
74218;BME280;62579;47.288;18.646;2023-07-13T11:26:37;99685.72;;;27.69;58.34
74218;BME280;62579;47.288;18.646;2023-07-13T11:28:52;99689.16;;;27.67;56.82
74218;BME280;62579;47.288;18.646;2023-07-13T11:31:19;99692.56;;;27.79;56.72
74218;BME280;62579;47.288;18.646;2023-07-13T11:33:52;99688.72;;;27.73;54.91
74218;BME280;62579;47.288;18.646;2023-07-13T11:36:18;99692.06;;;27.83;55.61
74218;BME280;62579;47.288;18.646;2023-07-13T11:38:49;99690.09;;;27.85;55.69
74218;BME280;62579;47.288;18.646;2023-07-13T11:41:29;99689.56;;;27.75;56.17
74218;BME280;62579;47.288;18.646;2023-07-13T11:44:01;99695.66;;;27.72;56.10
74218;BME280;62579;47.288;18.646;2023-07-13T11:46:27;99705.91;;;27.81;56.68
74218;BME280;62579;47.288;18.646;2023-07-13T11:48:53;99697.00;;;27.71;58.41
74218;BME280;62579;47.288;18.646;2023-07-13T11:51:23;99691.50;;;27.86;55.70
74218;BME280;62579;47.288;18.646;2023-07-13T11:53:51;99700.12;;;27.90;57.85
74218;BME280;62579;47.288;18.646;2023-07-13T11:56:17;99695.16;;;28.02;57.05
74218;BME280;62579;47.288;18.646;2023-07-13T11:58:42;99691.66;;;28.02;56.17
74218;BME280;62579;47.288;18.646;2023-07-13T12:01:18;99699.91;;;27.86;55.54
74218;BME280;62579;47.288;18.646;2023-07-13T12:03:45;99709.03;;;27.73;56.20
74218;BME280;62579;47.288;18.646;2023-07-13T12:06:25;99705.63;;;27.75;56.77
74218;BME280;62579;47.288;18.646;2023-07-13T12:08:52;99690.69;;;27.84;56.26
74218;BME280;62579;47.288;18.646;2023-07-13T12:11:20;99683.34;;;27.90;57.39
74218;BME280;62579;47.288;18.646;2023-07-13T12:13:46;99691.75;;;28.04;57.86
74218;BME280;62579;47.288;18.646;2023-07-13T12:16:25;99682.94;;;28.23;56.69
74218;BME280;62579;47.288;18.646;2023-07-13T12:18:52;99686.06;;;28.16;54.16
74218;BME280;62579;47.288;18.646;2023-07-13T12:21:18;99695.69;;;27.99;54.44
74218;BME280;62579;47.288;18.646;2023-07-13T12:23:44;99689.34;;;27.98;53.93
74218;BME280;62579;47.288;18.646;2023-07-13T12:26:11;99678.50;;;28.18;55.01
74218;BME280;62579;47.288;18.646;2023-07-13T12:28:38;99668.28;;;28.38;55.69
74218;BME280;62579;47.288;18.646;2023-07-13T12:31:19;99674.69;;;28.41;55.14
74218;BME280;62579;47.288;18.646;2023-07-13T12:33:48;99677.84;;;28.33;54.79
74218;BME280;62579;47.288;18.646;2023-07-13T12:36:15;99692.66;;;28.36;53.64
74218;BME280;62579;47.288;18.646;2023-07-13T12:38:40;99698.38;;;28.24;55.59
74218;BME280;62579;47.288;18.646;2023-07-13T12:41:05;99688.63;;;28.12;55.58
74218;BME280;62579;47.288;18.646;2023-07-13T12:43:34;99689.13;;;28.35;55.57
74218;BME280;62579;47.288;18.646;2023-07-13T12:46:16;99664.41;;;28.45;55.33
74218;BME280;62579;47.288;18.646;2023-07-13T12:48:42;99678.50;;;28.61;54.11
74218;BME280;62579;47.288;18.646;2023-07-13T12:51:10;99667.81;;;28.57;53.93
74218;BME280;62579;47.288;18.646;2023-07-13T12:53:39;99670.94;;;28.64;54.60
74218;BME280;62579;47.288;18.646;2023-07-13T12:56:04;99683.97;;;28.73;53.54
74218;BME280;62579;47.288;18.646;2023-07-13T12:58:40;99675.41;;;28.55;53.02
74218;BME280;62579;47.288;18.646;2023-07-13T13:01:10;99668.78;;;28.78;52.50
74218;BME280;62579;47.288;18.646;2023-07-13T13:03:40;99656.00;;;28.88;55.60
74218;BME280;62579;47.288;18.646;2023-07-13T13:08:45;99635.28;;;29.25;53.57
74218;BME280;62579;47.288;18.646;2023-07-13T13:11:11;99631.50;;;29.34;51.39
74218;BME280;62579;47.288;18.646;2023-07-13T13:13:36;99628.13;;;29.37;51.12
74218;BME280;62579;47.288;18.646;2023-07-13T13:16:02;99620.63;;;29.42;51.42
74218;BME280;62579;47.288;18.646;2023-07-13T13:18:31;99622.88;;;29.61;49.81
74218;BME280;62579;47.288;18.646;2023-07-13T13:20:56;99636.91;;;29.30;47.87
74218;BME280;62579;47.288;18.646;2023-07-13T13:23:21;99645.50;;;28.89;48.73
74218;BME280;62579;47.288;18.646;2023-07-13T13:25:49;99641.81;;;28.84;50.04
74218;BME280;62579;47.288;18.646;2023-07-13T13:28:16;99637.91;;;28.76;52.21
74218;BME280;62579;47.288;18.646;2023-07-13T13:30:42;99627.28;;;28.88;52.58
74218;BME280;62579;47.288;18.646;2023-07-13T13:33:09;99629.19;;;28.99;51.97
74218;BME280;62579;47.288;18.646;2023-07-13T13:35:35;99630.09;;;29.03;51.18
74218;BME280;62579;47.288;18.646;2023-07-13T13:38:00;99629.56;;;29.07;51.58